This is the latest recevied weather packets stored in our database for station/object N0TKN. If no packets are shown the sender has not sent any weather packets the latest 10 day(s).
| Time | Temp. | Humidity | Pressure | Rain* | Wind** | Luminosity | Snow |
|---|---|---|---|---|---|---|---|
| 1777928116 | 27.78° C | 45% | 1001.5 hPa | 0 mm | - | 738 W/m² | - |
| 1777927516 | 27.78° C | 45% | 1001.6 hPa | 0 mm | - | 745 W/m² | - |
| 1777926916 | 27.22° C | 44% | 1001.9 hPa | 0 mm | - | 662 W/m² | - |
| 1777926316 | 27.78° C | 44% | 1002 hPa | 0 mm | - | 715 W/m² | - |
| 1777925717 | 27.78° C | 44% | 1002 hPa | 0 mm | - | 745 W/m² | - |
| 1777925117 | 27.78° C | 45% | 1001.8 hPa | 0 mm | - | 773 W/m² | - |
| 1777924517 | 27.22° C | 45% | 1002.2 hPa | 0 mm | - | 612 W/m² | - |
| 1777923917 | 27.22° C | 45% | 1002.2 hPa | 0 mm | - | 731 W/m² | - |
| 1777923317 | 27.78° C | 45% | 1002.4 hPa | 0 mm | - | 637 W/m² | - |
| 1777922718 | 27.22° C | 44% | 1002.4 hPa | 0 mm | - | 899 W/m² | - |
| 1777922118 | 27.22° C | 44% | 1002.7 hPa | 0 mm | - | 740 W/m² | - |
| 1777921518 | 26.67° C | 45% | 1002.3 hPa | 0 mm | - | 948 W/m² | - |
| 1777920918 | 26.67° C | 45% | 1002.6 hPa | 0 mm | - | 896 W/m² | - |
| 1777920318 | 26.67° C | 45% | 1003.2 hPa | 0 mm | - | 496 W/m² | - |
| 1777919718 | 27.22° C | 44% | 1002.7 hPa | 0 mm | - | 907 W/m² | - |
| 1777919119 | 27.22° C | 45% | 1002.6 hPa | 0 mm | - | 913 W/m² | - |
| 1777918516 | 26.67° C | 46% | 1002.4 hPa | 0 mm | - | 923 W/m² | - |
| 1777917916 | 26.11° C | 46% | 1002.4 hPa | 0 mm | - | 923 W/m² | - |
| 1777917316 | 25.56° C | 46% | 1002.6 hPa | 0 mm | - | 929 W/m² | - |
| 1777916716 | 25° C | 48% | 1002.4 hPa | 0 mm | - | 971 W/m² | - |
| 1777916116 | 23.89° C | 51% | 1002.2 hPa | 0 mm | - | 933 W/m² | - |
| 1777915516 | 23.33° C | 52% | 1003.1 hPa | 0 mm | - | 193 W/m² | - |
| 1777914917 | 23.33° C | 52% | 1003.4 hPa | 0 mm | - | 203 W/m² | - |
| 1777914317 | 23.33° C | 51% | 1003.9 hPa | 0 mm | - | 137 W/m² | - |
| 1777913717 | 23.33° C | 50% | 1004.2 hPa | 0 mm | - | 63 W/m² | - |
* Rain latest hour (hover to see other rain measurements)
** Current wind speed in m/s (hover to see current wind gust speed)